sensor_id;sensor_type;location;lat;lon;timestamp;P1;durP1;ratioP1;P2;durP2;ratioP2
16171;SDS011;8192;53.596;10.166;2023-06-19T00:01:25;17.13;;;16.05;;
16171;SDS011;8192;53.596;10.166;2023-06-19T00:03:53;16.75;;;15.50;;
16171;SDS011;8192;53.596;10.166;2023-06-19T00:06:20;16.92;;;15.75;;
16171;SDS011;8192;53.596;10.166;2023-06-19T00:08:47;18.05;;;16.70;;
16171;SDS011;8192;53.596;10.166;2023-06-19T00:11:14;17.42;;;16.13;;
16171;SDS011;8192;53.596;10.166;2023-06-19T00:13:41;17.35;;;15.85;;
16171;SDS011;8192;53.596;10.166;2023-06-19T00:16:08;17.30;;;16.20;;
16171;SDS011;8192;53.596;10.166;2023-06-19T00:18:35;18.40;;;16.85;;
16171;SDS011;8192;53.596;10.166;2023-06-19T00:21:06;18.15;;;16.70;;
16171;SDS011;8192;53.596;10.166;2023-06-19T00:23:33;17.58;;;16.48;;
16171;SDS011;8192;53.596;10.166;2023-06-19T00:26:00;17.75;;;16.55;;
16171;SDS011;8192;53.596;10.166;2023-06-19T00:28:28;17.55;;;16.35;;
16171;SDS011;8192;53.596;10.166;2023-06-19T00:30:55;17.73;;;16.55;;
16171;SDS011;8192;53.596;10.166;2023-06-19T00:33:22;18.40;;;16.90;;
16171;SDS011;8192;53.596;10.166;2023-06-19T00:35:49;17.08;;;15.98;;
16171;SDS011;8192;53.596;10.166;2023-06-19T00:38:18;18.15;;;16.70;;
16171;SDS011;8192;53.596;10.166;2023-06-19T00:40:45;18.10;;;16.80;;
16171;SDS011;8192;53.596;10.166;2023-06-19T00:43:12;18.13;;;16.90;;
16171;SDS011;8192;53.596;10.166;2023-06-19T00:45:39;18.27;;;17.08;;
16171;SDS011;8192;53.596;10.166;2023-06-19T00:48:05;18.67;;;17.38;;
16171;SDS011;8192;53.596;10.166;2023-06-19T00:50:32;18.45;;;17.02;;
16171;SDS011;8192;53.596;10.166;2023-06-19T00:53:02;18.52;;;17.13;;
16171;SDS011;8192;53.596;10.166;2023-06-19T00:55:31;17.70;;;16.50;;
16171;SDS011;8192;53.596;10.166;2023-06-19T00:57:59;17.95;;;16.65;;
16171;SDS011;8192;53.596;10.166;2023-06-19T01:00:27;18.13;;;16.77;;
16171;SDS011;8192;53.596;10.166;2023-06-19T01:02:54;18.40;;;17.10;;
16171;SDS011;8192;53.596;10.166;2023-06-19T01:05:21;18.17;;;16.95;;
16171;SDS011;8192;53.596;10.166;2023-06-19T01:07:52;18.25;;;16.77;;
16171;SDS011;8192;53.596;10.166;2023-06-19T01:10:24;17.38;;;15.98;;
16171;SDS011;8192;53.596;10.166;2023-06-19T01:12:56;17.73;;;16.40;;
16171;SDS011;8192;53.596;10.166;2023-06-19T01:15:26;17.52;;;16.33;;
16171;SDS011;8192;53.596;10.166;2023-06-19T01:17:54;17.15;;;16.02;;
16171;SDS011;8192;53.596;10.166;2023-06-19T01:20:23;18.15;;;16.52;;
16171;SDS011;8192;53.596;10.166;2023-06-19T01:22:52;17.00;;;15.90;;
16171;SDS011;8192;53.596;10.166;2023-06-19T01:25:21;18.70;;;17.30;;
16171;SDS011;8192;53.596;10.166;2023-06-19T01:27:49;18.15;;;16.83;;
16171;SDS011;8192;53.596;10.166;2023-06-19T01:30:16;18.27;;;16.98;;
16171;SDS011;8192;53.596;10.166;2023-06-19T01:32:45;18.42;;;16.90;;
16171;SDS011;8192;53.596;10.166;2023-06-19T01:35:19;18.55;;;16.95;;
16171;SDS011;8192;53.596;10.166;2023-06-19T01:37:47;18.63;;;17.23;;
16171;SDS011;8192;53.596;10.166;2023-06-19T01:40:18;18.45;;;17.10;;
16171;SDS011;8192;53.596;10.166;2023-06-19T01:42:49;18.73;;;17.27;;
16171;SDS011;8192;53.596;10.166;2023-06-19T01:45:18;18.70;;;17.23;;
16171;SDS011;8192;53.596;10.166;2023-06-19T01:47:45;17.90;;;16.60;;
16171;SDS011;8192;53.596;10.166;2023-06-19T01:50:13;18.80;;;17.48;;
16171;SDS011;8192;53.596;10.166;2023-06-19T01:52:40;19.02;;;17.52;;
16171;SDS011;8192;53.596;10.166;2023-06-19T01:55:09;18.17;;;16.85;;
16171;SDS011;8192;53.596;10.166;2023-06-19T01:57:38;18.50;;;17.20;;
16171;SDS011;8192;53.596;10.166;2023-06-19T02:00:05;18.38;;;17.10;;
16171;SDS011;8192;53.596;10.166;2023-06-19T02:02:35;19.00;;;17.42;;
16171;SDS011;8192;53.596;10.166;2023-06-19T02:05:02;18.15;;;16.95;;
16171;SDS011;8192;53.596;10.166;2023-06-19T02:07:29;18.25;;;16.95;;
16171;SDS011;8192;53.596;10.166;2023-06-19T02:09:56;18.73;;;17.33;;
16171;SDS011;8192;53.596;10.166;2023-06-19T02:12:23;18.23;;;17.02;;
16171;SDS011;8192;53.596;10.166;2023-06-19T02:14:52;18.33;;;17.10;;
16171;SDS011;8192;53.596;10.166;2023-06-19T02:17:19;18.83;;;17.52;;
16171;SDS011;8192;53.596;10.166;2023-06-19T02:19:46;18.60;;;17.17;;
16171;SDS011;8192;53.596;10.166;2023-06-19T02:22:12;19.25;;;17.65;;
16171;SDS011;8192;53.596;10.166;2023-06-19T02:24:39;19.52;;;18.00;;
16171;SDS011;8192;53.596;10.166;2023-06-19T02:27:06;18.50;;;17.30;;
16171;SDS011;8192;53.596;10.166;2023-06-19T02:29:33;18.52;;;17.23;;
16171;SDS011;8192;53.596;10.166;2023-06-19T02:32:02;19.48;;;17.88;;
16171;SDS011;8192;53.596;10.166;2023-06-19T02:34:30;18.02;;;16.73;;
16171;SDS011;8192;53.596;10.166;2023-06-19T02:36:57;19.08;;;17.75;;
16171;SDS011;8192;53.596;10.166;2023-06-19T02:39:24;18.98;;;17.40;;
16171;SDS011;8192;53.596;10.166;2023-06-19T02:41:53;18.65;;;17.42;;
16171;SDS011;8192;53.596;10.166;2023-06-19T02:44:20;20.48;;;18.63;;
16171;SDS011;8192;53.596;10.166;2023-06-19T02:46:47;19.55;;;17.83;;
16171;SDS011;8192;53.596;10.166;2023-06-19T02:49:15;19.27;;;17.92;;
16171;SDS011;8192;53.596;10.166;2023-06-19T02:51:42;18.98;;;17.48;;
16171;SDS011;8192;53.596;10.166;2023-06-19T02:54:09;19.20;;;17.70;;
16171;SDS011;8192;53.596;10.166;2023-06-19T02:56:37;19.38;;;17.98;;
16171;SDS011;8192;53.596;10.166;2023-06-19T02:59:04;19.20;;;17.75;;
16171;SDS011;8192;53.596;10.166;2023-06-19T03:01:31;19.33;;;18.00;;
16171;SDS011;8192;53.596;10.166;2023-06-19T03:03:59;19.30;;;17.98;;
16171;SDS011;8192;53.596;10.166;2023-06-19T03:06:28;19.85;;;18.17;;
16171;SDS011;8192;53.596;10.166;2023-06-19T03:08:55;19.58;;;18.17;;
16171;SDS011;8192;53.596;10.166;2023-06-19T03:11:22;19.38;;;17.98;;
16171;SDS011;8192;53.596;10.166;2023-06-19T03:13:50;19.23;;;17.73;;
16171;SDS011;8192;53.596;10.166;2023-06-19T03:16:18;19.00;;;17.80;;
16171;SDS011;8192;53.596;10.166;2023-06-19T03:18:45;19.75;;;18.27;;
16171;SDS011;8192;53.596;10.166;2023-06-19T03:21:13;20.55;;;18.92;;
16171;SDS011;8192;53.596;10.166;2023-06-19T03:23:42;19.95;;;18.65;;
16171;SDS011;8192;53.596;10.166;2023-06-19T03:26:08;19.83;;;18.42;;
16171;SDS011;8192;53.596;10.166;2023-06-19T03:28:36;19.75;;;18.20;;
16171;SDS011;8192;53.596;10.166;2023-06-19T03:31:03;20.08;;;18.52;;
16171;SDS011;8192;53.596;10.166;2023-06-19T03:33:30;19.83;;;18.42;;
16171;SDS011;8192;53.596;10.166;2023-06-19T03:35:57;20.50;;;19.00;;
16171;SDS011;8192;53.596;10.166;2023-06-19T03:38:24;20.15;;;18.75;;
16171;SDS011;8192;53.596;10.166;2023-06-19T03:40:53;20.35;;;18.73;;
16171;SDS011;8192;53.596;10.166;2023-06-19T03:43:20;20.02;;;18.58;;
16171;SDS011;8192;53.596;10.166;2023-06-19T03:45:47;19.65;;;18.15;;
16171;SDS011;8192;53.596;10.166;2023-06-19T03:48:14;20.55;;;19.15;;
16171;SDS011;8192;53.596;10.166;2023-06-19T03:50:41;20.73;;;19.23;;
16171;SDS011;8192;53.596;10.166;2023-06-19T03:53:09;20.35;;;18.90;;
16171;SDS011;8192;53.596;10.166;2023-06-19T03:55:36;20.73;;;18.92;;
16171;SDS011;8192;53.596;10.166;2023-06-19T03:58:04;20.15;;;18.70;;
16171;SDS011;8192;53.596;10.166;2023-06-19T04:00:31;20.20;;;18.83;;
16171;SDS011;8192;53.596;10.166;2023-06-19T04:02:58;20.48;;;19.02;;
16171;SDS011;8192;53.596;10.166;2023-06-19T04:05:25;20.88;;;19.27;;
16171;SDS011;8192;53.596;10.166;2023-06-19T04:07:52;20.92;;;19.45;;
16171;SDS011;8192;53.596;10.166;2023-06-19T04:10:19;21.40;;;19.70;;
16171;SDS011;8192;53.596;10.166;2023-06-19T04:12:47;21.13;;;19.42;;
16171;SDS011;8192;53.596;10.166;2023-06-19T04:15:15;20.50;;;18.80;;
16171;SDS011;8192;53.596;10.166;2023-06-19T04:17:42;20.73;;;19.25;;
16171;SDS011;8192;53.596;10.166;2023-06-19T04:20:10;20.98;;;19.48;;
16171;SDS011;8192;53.596;10.166;2023-06-19T04:22:37;21.55;;;19.92;;
16171;SDS011;8192;53.596;10.166;2023-06-19T04:25:05;21.23;;;19.63;;
16171;SDS011;8192;53.596;10.166;2023-06-19T04:27:33;20.73;;;19.02;;
16171;SDS011;8192;53.596;10.166;2023-06-19T04:32:30;21.08;;;19.38;;
16171;SDS011;8192;53.596;10.166;2023-06-19T04:34:57;20.15;;;18.67;;
16171;SDS011;8192;53.596;10.166;2023-06-19T04:37:24;21.05;;;19.60;;
16171;SDS011;8192;53.596;10.166;2023-06-19T04:39:51;20.83;;;19.42;;
16171;SDS011;8192;53.596;10.166;2023-06-19T04:42:19;21.00;;;19.60;;
16171;SDS011;8192;53.596;10.166;2023-06-19T04:44:46;20.48;;;19.08;;
16171;SDS011;8192;53.596;10.166;2023-06-19T04:47:13;20.27;;;18.77;;
16171;SDS011;8192;53.596;10.166;2023-06-19T04:49:42;21.67;;;20.08;;
16171;SDS011;8192;53.596;10.166;2023-06-19T04:52:09;21.42;;;19.92;;
16171;SDS011;8192;53.596;10.166;2023-06-19T04:54:36;21.60;;;19.88;;
16171;SDS011;8192;53.596;10.166;2023-06-19T04:57:04;20.92;;;19.52;;
16171;SDS011;8192;53.596;10.166;2023-06-19T04:59:31;20.83;;;19.30;;
16171;SDS011;8192;53.596;10.166;2023-06-19T05:01:59;20.65;;;19.15;;
16171;SDS011;8192;53.596;10.166;2023-06-19T05:04:26;20.45;;;18.83;;
16171;SDS011;8192;53.596;10.166;2023-06-19T05:06:59;20.85;;;19.45;;
16171;SDS011;8192;53.596;10.166;2023-06-19T05:09:26;20.42;;;18.92;;
16171;SDS011;8192;53.596;10.166;2023-06-19T05:11:53;20.75;;;19.25;;
16171;SDS011;8192;53.596;10.166;2023-06-19T05:14:20;21.77;;;19.90;;
16171;SDS011;8192;53.596;10.166;2023-06-19T05:16:47;21.45;;;19.73;;
16171;SDS011;8192;53.596;10.166;2023-06-19T05:19:14;20.92;;;19.42;;
16171;SDS011;8192;53.596;10.166;2023-06-19T05:21:41;21.80;;;20.10;;
16171;SDS011;8192;53.596;10.166;2023-06-19T05:24:09;21.60;;;20.10;;
16171;SDS011;8192;53.596;10.166;2023-06-19T05:26:36;21.25;;;19.45;;
16171;SDS011;8192;53.596;10.166;2023-06-19T05:29:03;21.60;;;20.05;;
16171;SDS011;8192;53.596;10.166;2023-06-19T05:31:33;20.98;;;19.38;;
16171;SDS011;8192;53.596;10.166;2023-06-19T05:34:00;21.10;;;19.60;;
16171;SDS011;8192;53.596;10.166;2023-06-19T05:36:28;20.13;;;18.73;;
16171;SDS011;8192;53.596;10.166;2023-06-19T05:38:56;19.80;;;18.40;;
16171;SDS011;8192;53.596;10.166;2023-06-19T05:41:25;21.70;;;20.10;;
16171;SDS011;8192;53.596;10.166;2023-06-19T05:43:52;21.27;;;19.77;;
16171;SDS011;8192;53.596;10.166;2023-06-19T05:46:19;21.98;;;20.08;;
16171;SDS011;8192;53.596;10.166;2023-06-19T05:48:46;22.33;;;20.52;;
16171;SDS011;8192;53.596;10.166;2023-06-19T05:51:14;21.75;;;19.90;;
16171;SDS011;8192;53.596;10.166;2023-06-19T05:53:41;20.70;;;19.10;;
16171;SDS011;8192;53.596;10.166;2023-06-19T05:56:09;21.50;;;20.00;;
16171;SDS011;8192;53.596;10.166;2023-06-19T05:58:37;20.08;;;18.48;;
16171;SDS011;8192;53.596;10.166;2023-06-19T06:01:04;20.98;;;19.48;;
16171;SDS011;8192;53.596;10.166;2023-06-19T06:03:32;21.55;;;19.58;;
16171;SDS011;8192;53.596;10.166;2023-06-19T06:05:58;20.60;;;18.90;;
16171;SDS011;8192;53.596;10.166;2023-06-19T06:08:28;21.08;;;19.58;;
16171;SDS011;8192;53.596;10.166;2023-06-19T06:10:55;21.27;;;19.48;;
16171;SDS011;8192;53.596;10.166;2023-06-19T06:13:22;21.08;;;19.38;;
16171;SDS011;8192;53.596;10.166;2023-06-19T06:15:50;21.17;;;19.25;;
16171;SDS011;8192;53.596;10.166;2023-06-19T06:18:18;21.13;;;19.35;;
16171;SDS011;8192;53.596;10.166;2023-06-19T06:20:45;20.75;;;19.10;;
16171;SDS011;8192;53.596;10.166;2023-06-19T06:23:12;21.17;;;19.55;;
16171;SDS011;8192;53.596;10.166;2023-06-19T06:25:40;20.48;;;18.98;;
16171;SDS011;8192;53.596;10.166;2023-06-19T06:28:07;20.88;;;18.90;;
16171;SDS011;8192;53.596;10.166;2023-06-19T06:30:34;21.45;;;19.95;;
16171;SDS011;8192;53.596;10.166;2023-06-19T06:33:03;21.55;;;20.05;;
16171;SDS011;8192;53.596;10.166;2023-06-19T06:35:30;21.30;;;19.80;;
16171;SDS011;8192;53.596;10.166;2023-06-19T06:37:57;21.27;;;19.77;;
16171;SDS011;8192;53.596;10.166;2023-06-19T06:40:24;20.83;;;19.30;;
16171;SDS011;8192;53.596;10.166;2023-06-19T06:42:51;21.38;;;19.88;;
16171;SDS011;8192;53.596;10.166;2023-06-19T06:45:18;22.25;;;20.30;;
16171;SDS011;8192;53.596;10.166;2023-06-19T06:47:45;22.70;;;20.90;;
16171;SDS011;8192;53.596;10.166;2023-06-19T06:50:14;21.38;;;19.77;;
16171;SDS011;8192;53.596;10.166;2023-06-19T06:52:41;22.33;;;20.42;;
16171;SDS011;8192;53.596;10.166;2023-06-19T06:55:08;21.60;;;20.00;;
16171;SDS011;8192;53.596;10.166;2023-06-19T06:57:35;21.90;;;20.23;;
16171;SDS011;8192;53.596;10.166;2023-06-19T07:00:04;22.20;;;20.60;;
16171;SDS011;8192;53.596;10.166;2023-06-19T07:02:32;23.10;;;21.27;;
16171;SDS011;8192;53.596;10.166;2023-06-19T07:04:59;23.13;;;21.33;;
16171;SDS011;8192;53.596;10.166;2023-06-19T07:07:28;26.33;;;24.23;;
16171;SDS011;8192;53.596;10.166;2023-06-19T07:09:55;23.40;;;21.80;;
16171;SDS011;8192;53.596;10.166;2023-06-19T07:12:22;24.10;;;22.40;;
16171;SDS011;8192;53.596;10.166;2023-06-19T07:14:52;22.92;;;21.23;;
16171;SDS011;8192;53.596;10.166;2023-06-19T07:17:19;23.80;;;21.88;;
16171;SDS011;8192;53.596;10.166;2023-06-19T07:19:46;24.15;;;22.42;;
16171;SDS011;8192;53.596;10.166;2023-06-19T07:22:14;24.67;;;22.77;;
16171;SDS011;8192;53.596;10.166;2023-06-19T07:24:42;28.23;;;22.33;;
16171;SDS011;8192;53.596;10.166;2023-06-19T07:27:09;23.13;;;21.40;;
16171;SDS011;8192;53.596;10.166;2023-06-19T07:29:36;23.98;;;21.98;;
16171;SDS011;8192;53.596;10.166;2023-06-19T07:32:03;23.08;;;21.10;;
16171;SDS011;8192;53.596;10.166;2023-06-19T07:34:31;23.23;;;21.05;;
16171;SDS011;8192;53.596;10.166;2023-06-19T07:36:57;22.27;;;20.67;;
16171;SDS011;8192;53.596;10.166;2023-06-19T07:39:24;23.95;;;22.15;;
16171;SDS011;8192;53.596;10.166;2023-06-19T07:41:53;23.10;;;21.38;;
16171;SDS011;8192;53.596;10.166;2023-06-19T07:44:20;24.40;;;22.60;;
16171;SDS011;8192;53.596;10.166;2023-06-19T07:46:47;23.92;;;21.98;;
16171;SDS011;8192;53.596;10.166;2023-06-19T07:49:14;25.15;;;23.08;;
16171;SDS011;8192;53.596;10.166;2023-06-19T07:51:41;24.63;;;22.50;;
16171;SDS011;8192;53.596;10.166;2023-06-19T07:54:08;23.85;;;22.08;;
16171;SDS011;8192;53.596;10.166;2023-06-19T07:56:35;23.48;;;21.88;;
16171;SDS011;8192;53.596;10.166;2023-06-19T07:59:05;24.25;;;22.23;;
16171;SDS011;8192;53.596;10.166;2023-06-19T08:01:31;23.35;;;21.75;;
16171;SDS011;8192;53.596;10.166;2023-06-19T08:03:58;23.25;;;21.52;;
16171;SDS011;8192;53.596;10.166;2023-06-19T08:06:26;24.13;;;22.42;;
16171;SDS011;8192;53.596;10.166;2023-06-19T08:08:53;23.20;;;21.45;;
16171;SDS011;8192;53.596;10.166;2023-06-19T08:11:20;23.25;;;21.52;;
16171;SDS011;8192;53.596;10.166;2023-06-19T08:13:48;24.35;;;22.55;;
16171;SDS011;8192;53.596;10.166;2023-06-19T08:16:16;24.33;;;22.33;;
16171;SDS011;8192;53.596;10.166;2023-06-19T08:18:43;23.70;;;21.90;;
16171;SDS011;8192;53.596;10.166;2023-06-19T08:21:10;24.02;;;22.23;;
16171;SDS011;8192;53.596;10.166;2023-06-19T08:23:37;23.70;;;22.00;;
16171;SDS011;8192;53.596;10.166;2023-06-19T08:26:05;24.70;;;22.45;;
16171;SDS011;8192;53.596;10.166;2023-06-19T08:28:33;23.33;;;21.65;;
16171;SDS011;8192;53.596;10.166;2023-06-19T08:31:00;24.13;;;22.30;;
16171;SDS011;8192;53.596;10.166;2023-06-19T08:33:29;23.90;;;22.10;;
16171;SDS011;8192;53.596;10.166;2023-06-19T08:35:56;23.50;;;21.70;;
16171;SDS011;8192;53.596;10.166;2023-06-19T08:38:23;23.10;;;21.40;;
16171;SDS011;8192;53.596;10.166;2023-06-19T08:40:50;23.70;;;21.90;;
16171;SDS011;8192;53.596;10.166;2023-06-19T08:43:17;24.23;;;22.23;;
16171;SDS011;8192;53.596;10.166;2023-06-19T08:45:45;23.65;;;21.95;;
16171;SDS011;8192;53.596;10.166;2023-06-19T08:48:23;24.08;;;22.23;;
16171;SDS011;8192;53.596;10.166;2023-06-19T08:50:52;22.90;;;21.40;;
16171;SDS011;8192;53.596;10.166;2023-06-19T08:53:21;23.73;;;21.92;;
16171;SDS011;8192;53.596;10.166;2023-06-19T08:55:48;24.08;;;22.38;;
16171;SDS011;8192;53.596;10.166;2023-06-19T08:58:20;23.65;;;21.98;;
16171;SDS011;8192;53.596;10.166;2023-06-19T09:00:48;23.55;;;21.65;;
16171;SDS011;8192;53.596;10.166;2023-06-19T09:03:19;23.55;;;21.83;;
16171;SDS011;8192;53.596;10.166;2023-06-19T09:05:47;42.20;;;39.28;;
16171;SDS011;8192;53.596;10.166;2023-06-19T09:08:17;26.90;;;25.08;;
16171;SDS011;8192;53.596;10.166;2023-06-19T09:10:54;24.38;;;22.58;;
16171;SDS011;8192;53.596;10.166;2023-06-19T09:13:22;24.45;;;22.75;;
16171;SDS011;8192;53.596;10.166;2023-06-19T09:15:56;24.40;;;22.60;;
16171;SDS011;8192;53.596;10.166;2023-06-19T09:18:25;25.38;;;23.38;;
16171;SDS011;8192;53.596;10.166;2023-06-19T09:20:52;23.35;;;21.75;;
16171;SDS011;8192;53.596;10.166;2023-06-19T09:25:52;23.73;;;21.92;;
16171;SDS011;8192;53.596;10.166;2023-06-19T09:28:21;23.58;;;21.77;;
16171;SDS011;8192;53.596;10.166;2023-06-19T09:30:55;23.77;;;21.85;;
16171;SDS011;8192;53.596;10.166;2023-06-19T09:36:44;23.10;;;21.60;;
16171;SDS011;8192;53.596;10.166;2023-06-19T09:39:13;23.45;;;21.42;;
16171;SDS011;8192;53.596;10.166;2023-06-19T09:41:43;24.92;;;22.92;;
16171;SDS011;8192;53.596;10.166;2023-06-19T09:44:13;23.60;;;21.95;;
16171;SDS011;8192;53.596;10.166;2023-06-19T09:46:41;23.17;;;21.38;;
16171;SDS011;8192;53.596;10.166;2023-06-19T09:49:12;22.77;;;21.10;;
16171;SDS011;8192;53.596;10.166;2023-06-19T09:51:42;22.40;;;20.75;;
16171;SDS011;8192;53.596;10.166;2023-06-19T09:54:10;21.95;;;20.55;;
16171;SDS011;8192;53.596;10.166;2023-06-19T09:56:40;21.77;;;20.48;;
16171;SDS011;8192;53.596;10.166;2023-06-19T09:59:08;22.38;;;20.80;;
16171;SDS011;8192;53.596;10.166;2023-06-19T10:01:35;22.02;;;20.33;;
16171;SDS011;8192;53.596;10.166;2023-06-19T10:04:04;22.42;;;20.92;;
16171;SDS011;8192;53.596;10.166;2023-06-19T10:06:32;22.75;;;21.25;;
16171;SDS011;8192;53.596;10.166;2023-06-19T10:09:08;22.65;;;21.08;;
16171;SDS011;8192;53.596;10.166;2023-06-19T10:11:57;22.50;;;20.70;;
16171;SDS011;8192;53.596;10.166;2023-06-19T10:14:27;23.52;;;21.60;;
16171;SDS011;8192;53.596;10.166;2023-06-19T10:16:54;22.40;;;20.80;;
16171;SDS011;8192;53.596;10.166;2023-06-19T10:19:21;22.83;;;21.05;;
16171;SDS011;8192;53.596;10.166;2023-06-19T10:21:49;22.33;;;20.83;;
16171;SDS011;8192;53.596;10.166;2023-06-19T10:24:18;22.60;;;21.10;;
16171;SDS011;8192;53.596;10.166;2023-06-19T10:26:56;22.55;;;21.02;;
16171;SDS011;8192;53.596;10.166;2023-06-19T10:29:25;22.02;;;20.60;;
16171;SDS011;8192;53.596;10.166;2023-06-19T10:31:53;22.65;;;21.05;;
16171;SDS011;8192;53.596;10.166;2023-06-19T10:34:22;23.10;;;21.40;;
16171;SDS011;8192;53.596;10.166;2023-06-19T10:36:58;22.77;;;21.27;;
16171;SDS011;8192;53.596;10.166;2023-06-19T10:39:25;27.42;;;25.52;;
16171;SDS011;8192;53.596;10.166;2023-06-19T10:41:52;32.88;;;30.45;;
16171;SDS011;8192;53.596;10.166;2023-06-19T10:44:22;42.53;;;39.78;;
16171;SDS011;8192;53.596;10.166;2023-06-19T10:46:52;25.65;;;23.75;;
16171;SDS011;8192;53.596;10.166;2023-06-19T10:49:19;25.63;;;23.77;;
16171;SDS011;8192;53.596;10.166;2023-06-19T10:51:48;50.92;;;46.47;;
16171;SDS011;8192;53.596;10.166;2023-06-19T10:54:16;52.40;;;49.13;;
16171;SDS011;8192;53.596;10.166;2023-06-19T10:56:43;44.50;;;41.90;;
16171;SDS011;8192;53.596;10.166;2023-06-19T10:59:13;33.60;;;31.50;;
16171;SDS011;8192;53.596;10.166;2023-06-19T11:01:43;37.55;;;35.35;;
16171;SDS011;8192;53.596;10.166;2023-06-19T11:04:13;38.50;;;36.00;;
16171;SDS011;8192;53.596;10.166;2023-06-19T11:06:42;40.15;;;37.65;;
16171;SDS011;8192;53.596;10.166;2023-06-19T11:09:10;28.52;;;26.27;;
16171;SDS011;8192;53.596;10.166;2023-06-19T11:11:39;29.88;;;27.92;;
16171;SDS011;8192;53.596;10.166;2023-06-19T11:14:07;32.20;;;30.00;;
16171;SDS011;8192;53.596;10.166;2023-06-19T11:16:37;23.70;;;22.00;;
16171;SDS011;8192;53.596;10.166;2023-06-19T11:19:08;29.40;;;27.48;;
16171;SDS011;8192;53.596;10.166;2023-06-19T11:21:36;41.55;;;39.15;;
16171;SDS011;8192;53.596;10.166;2023-06-19T11:24:04;24.38;;;22.67;;
16171;SDS011;8192;53.596;10.166;2023-06-19T11:26:34;23.70;;;22.08;;
16171;SDS011;8192;53.596;10.166;2023-06-19T11:29:13;23.48;;;21.88;;
16171;SDS011;8192;53.596;10.166;2023-06-19T11:31:41;23.30;;;21.52;;
16171;SDS011;8192;53.596;10.166;2023-06-19T11:34:09;24.38;;;22.70;;
16171;SDS011;8192;53.596;10.166;2023-06-19T11:36:37;22.98;;;21.38;;
16171;SDS011;8192;53.596;10.166;2023-06-19T11:39:04;24.25;;;22.48;;
16171;SDS011;8192;53.596;10.166;2023-06-19T11:41:38;24.55;;;22.55;;
16171;SDS011;8192;53.596;10.166;2023-06-19T11:44:06;23.17;;;21.67;;
16171;SDS011;8192;53.596;10.166;2023-06-19T11:46:39;23.42;;;21.50;;
16171;SDS011;8192;53.596;10.166;2023-06-19T11:49:08;22.92;;;21.27;;
16171;SDS011;8192;53.596;10.166;2023-06-19T11:51:36;22.88;;;21.23;;
16171;SDS011;8192;53.596;10.166;2023-06-19T11:54:04;22.80;;;21.20;;
16171;SDS011;8192;53.596;10.166;2023-06-19T11:56:33;23.23;;;21.30;;
16171;SDS011;8192;53.596;10.166;2023-06-19T11:59:01;23.58;;;22.00;;
16171;SDS011;8192;53.596;10.166;2023-06-19T12:01:28;22.63;;;21.13;;
16171;SDS011;8192;53.596;10.166;2023-06-19T12:03:56;22.33;;;20.88;;
16171;SDS011;8192;53.596;10.166;2023-06-19T12:06:24;23.67;;;21.92;;
16171;SDS011;8192;53.596;10.166;2023-06-19T12:08:52;22.13;;;20.58;;
16171;SDS011;8192;53.596;10.166;2023-06-19T12:11:19;21.80;;;20.33;;
16171;SDS011;8192;53.596;10.166;2023-06-19T12:13:46;21.00;;;19.60;;
16171;SDS011;8192;53.596;10.166;2023-06-19T12:16:14;9.82;;;7.30;;
16171;SDS011;8192;53.596;10.166;2023-06-19T12:18:41;9.32;;;7.00;;
16171;SDS011;8192;53.596;10.166;2023-06-19T12:21:08;10.52;;;7.57;;
16171;SDS011;8192;53.596;10.166;2023-06-19T12:23:36;9.95;;;7.60;;
16171;SDS011;8192;53.596;10.166;2023-06-19T12:26:03;7.90;;;6.93;;
16171;SDS011;8192;53.596;10.166;2023-06-19T12:28:31;9.05;;;7.05;;
16171;SDS011;8192;53.596;10.166;2023-06-19T12:30:57;11.20;;;9.00;;
16171;SDS011;8192;53.596;10.166;2023-06-19T12:33:25;9.85;;;9.02;;
16171;SDS011;8192;53.596;10.166;2023-06-19T12:35:58;9.90;;;7.45;;
16171;SDS011;8192;53.596;10.166;2023-06-19T12:38:25;21.80;;;20.20;;
16171;SDS011;8192;53.596;10.166;2023-06-19T12:40:54;21.33;;;19.92;;
16171;SDS011;8192;53.596;10.166;2023-06-19T12:43:23;21.33;;;19.83;;
16171;SDS011;8192;53.596;10.166;2023-06-19T12:45:51;20.42;;;19.20;;
16171;SDS011;8192;53.596;10.166;2023-06-19T12:48:18;21.58;;;19.95;;
16171;SDS011;8192;53.596;10.166;2023-06-19T12:50:45;25.23;;;23.55;;
16171;SDS011;8192;53.596;10.166;2023-06-19T12:53:12;20.60;;;19.20;;
16171;SDS011;8192;53.596;10.166;2023-06-19T12:55:39;20.45;;;18.60;;
16171;SDS011;8192;53.596;10.166;2023-06-19T12:58:07;20.77;;;19.05;;
16171;SDS011;8192;53.596;10.166;2023-06-19T13:00:36;18.95;;;17.83;;
16171;SDS011;8192;53.596;10.166;2023-06-19T13:03:03;19.55;;;17.90;;
16171;SDS011;8192;53.596;10.166;2023-06-19T13:05:29;20.50;;;18.80;;
16171;SDS011;8192;53.596;10.166;2023-06-19T13:07:56;19.27;;;17.95;;
16171;SDS011;8192;53.596;10.166;2023-06-19T13:10:23;19.70;;;18.40;;
16171;SDS011;8192;53.596;10.166;2023-06-19T13:12:50;20.42;;;18.85;;
16171;SDS011;8192;53.596;10.166;2023-06-19T13:15:19;20.30;;;18.90;;
16171;SDS011;8192;53.596;10.166;2023-06-19T13:17:46;20.40;;;18.88;;
16171;SDS011;8192;53.596;10.166;2023-06-19T13:20:13;19.40;;;17.95;;
16171;SDS011;8192;53.596;10.166;2023-06-19T13:22:40;19.35;;;18.05;;
16171;SDS011;8192;53.596;10.166;2023-06-19T13:25:07;20.67;;;19.05;;
16171;SDS011;8192;53.596;10.166;2023-06-19T13:27:34;18.77;;;17.58;;
16171;SDS011;8192;53.596;10.166;2023-06-19T13:30:02;19.38;;;18.08;;
16171;SDS011;8192;53.596;10.166;2023-06-19T13:32:31;20.00;;;18.38;;
16171;SDS011;8192;53.596;10.166;2023-06-19T13:34:58;18.92;;;17.70;;
16171;SDS011;8192;53.596;10.166;2023-06-19T13:37:25;19.75;;;18.45;;
16171;SDS011;8192;53.596;10.166;2023-06-19T13:39:52;19.60;;;18.13;;
16171;SDS011;8192;53.596;10.166;2023-06-19T13:42:19;18.77;;;17.60;;
16171;SDS011;8192;53.596;10.166;2023-06-19T13:44:46;20.38;;;18.55;;
16171;SDS011;8192;53.596;10.166;2023-06-19T13:47:13;18.80;;;17.65;;
16171;SDS011;8192;53.596;10.166;2023-06-19T13:49:42;18.48;;;17.38;;
16171;SDS011;8192;53.596;10.166;2023-06-19T13:52:09;18.85;;;17.63;;
16171;SDS011;8192;53.596;10.166;2023-06-19T13:54:36;19.60;;;18.40;;
16171;SDS011;8192;53.596;10.166;2023-06-19T13:57:04;19.85;;;18.35;;
16171;SDS011;8192;53.596;10.166;2023-06-19T13:59:32;19.00;;;17.85;;
16171;SDS011;8192;53.596;10.166;2023-06-19T14:01:59;19.17;;;17.95;;
16171;SDS011;8192;53.596;10.166;2023-06-19T14:04:26;19.52;;;17.88;;
16171;SDS011;8192;53.596;10.166;2023-06-19T14:06:54;20.98;;;19.40;;
16171;SDS011;8192;53.596;10.166;2023-06-19T14:09:21;20.20;;;18.80;;
16171;SDS011;8192;53.596;10.166;2023-06-19T14:11:48;20.20;;;18.55;;
16171;SDS011;8192;53.596;10.166;2023-06-19T14:14:23;19.73;;;18.25;;
16171;SDS011;8192;53.596;10.166;2023-06-19T14:16:51;19.55;;;18.25;;
16171;SDS011;8192;53.596;10.166;2023-06-19T14:19:18;19.00;;;17.73;;
16171;SDS011;8192;53.596;10.166;2023-06-19T14:21:45;19.73;;;18.42;;
16171;SDS011;8192;53.596;10.166;2023-06-19T14:24:13;19.98;;;18.58;;
16171;SDS011;8192;53.596;10.166;2023-06-19T14:26:41;19.88;;;18.48;;
16171;SDS011;8192;53.596;10.166;2023-06-19T14:29:08;19.30;;;17.73;;
16171;SDS011;8192;53.596;10.166;2023-06-19T14:31:36;18.73;;;17.63;;
16171;SDS011;8192;53.596;10.166;2023-06-19T14:34:03;19.50;;;18.20;;